Time;durP1;ratioP1;P1;durP2;ratioP2;P2;SDS_P1;SDS_P2;PMS_P1;PMS_P2;Temp;Humidity;BMP_temperature;BMP_pressure;BME280_temperature;BME280_humidity;BME280_pressure;Samples;Min_cycle;Max_cycle;Signal;HPM_P1;HPM_P2
2020/07/18 00:02:25;;;;;;;2.01;1.90;;;;;;;21.29;64.47;100790.54;;;;-52
2020/07/18 00:05:25;;;;;;;1.95;1.85;;;;;;;21.29;64.35;100789.97;;;;-51
2020/07/18 00:08:25;;;;;;;1.90;1.80;;;;;;;21.29;64.35;100784.41;;;;-51
2020/07/18 00:11:25;;;;;;;3.05;1.84;;;;;;;21.28;64.38;100788.00;;;;-53
2020/07/18 00:14:25;;;;;;;1.95;1.70;;;;;;;21.28;64.39;100784.57;;;;-50
2020/07/18 00:17:25;;;;;;;1.75;1.65;;;;;;;21.27;64.43;100786.54;;;;-52
2020/07/18 00:20:25;;;;;;;1.83;1.73;;;;;;;21.27;64.46;100786.21;;;;-52
2020/07/18 00:23:25;;;;;;;1.89;1.71;;;;;;;21.27;64.39;100785.05;;;;-50
2020/07/18 00:26:25;;;;;;;1.80;1.70;;;;;;;21.26;64.40;100782.52;;;;-52
2020/07/18 00:29:25;;;;;;;2.08;1.80;;;;;;;21.26;64.41;100781.88;;;;-52
2020/07/18 00:32:25;;;;;;;2.56;1.68;;;;;;;21.26;64.43;100783.75;;;;-51
2020/07/18 00:35:25;;;;;;;1.83;1.73;;;;;;;21.25;64.34;100786.20;;;;-51
2020/07/18 00:40:25;;;;;;;1.99;1.89;;;;;;;21.25;64.37;100779.17;;;;-53
2020/07/18 00:44:25;;;;;;;1.74;1.64;;;;;;;21.25;64.39;100779.17;;;;-52
2020/07/18 00:49:25;;;;;;;1.80;1.70;;;;;;;21.24;64.41;100773.14;;;;-51
2020/07/18 00:54:25;;;;;;;1.75;1.65;;;;;;;21.24;64.41;100772.00;;;;-51
2020/07/18 01:01:25;;;;;;;1.90;1.80;;;;;;;21.23;64.44;100767.45;;;;-52
2020/07/18 01:04:25;;;;;;;1.90;1.80;;;;;;;21.23;64.39;100767.28;;;;-51
2020/07/18 01:07:25;;;;;;;1.92;1.82;;;;;;;21.23;64.37;100767.61;;;;-52
2020/07/18 01:10:25;;;;;;;1.99;1.87;;;;;;;21.23;64.36;100764.16;;;;-52
2020/07/18 01:13:25;;;;;;;1.79;1.69;;;;;;;21.22;64.42;100765.64;;;;-51
2020/07/18 01:16:26;;;;;;;1.84;1.74;;;;;;;21.22;64.37;100765.72;;;;-51
2020/07/18 01:19:25;;;;;;;1.85;1.75;;;;;;;21.22;64.36;100765.96;;;;-51
2020/07/18 01:22:25;;;;;;;1.93;1.78;;;;;;;21.22;64.37;100760.99;;;;-52
2020/07/18 01:25:25;;;;;;;2.14;1.83;;;;;;;21.22;64.40;100758.30;;;;-51
2020/07/18 01:28:25;;;;;;;1.89;1.79;;;;;;;21.21;64.40;100757.58;;;;-51
2020/07/18 01:31:25;;;;;;;1.68;1.58;;;;;;;21.22;64.36;100758.63;;;;-52
2020/07/18 01:34:25;;;;;;;1.70;1.60;;;;;;;21.22;64.39;100755.53;;;;-52
2020/07/18 01:37:25;;;;;;;2.11;1.91;;;;;;;21.21;64.27;100755.95;;;;-50
2020/07/18 01:40:25;;;;;;;1.74;1.64;;;;;;;21.21;64.38;100754.97;;;;-51
2020/07/18 01:43:25;;;;;;;1.81;1.70;;;;;;;21.20;64.38;100752.74;;;;-51
2020/07/18 01:46:25;;;;;;;1.84;1.73;;;;;;;21.20;64.41;100752.09;;;;-52
2020/07/18 01:49:25;;;;;;;1.88;1.78;;;;;;;21.20;64.41;100753.81;;;;-51
2020/07/18 01:52:25;;;;;;;1.84;1.74;;;;;;;21.19;64.37;100755.20;;;;-51
2020/07/18 01:55:25;;;;;;;1.81;1.71;;;;;;;21.20;64.36;100754.95;;;;-50
2020/07/18 01:58:25;;;;;;;1.86;1.76;;;;;;;21.19;64.35;100757.64;;;;-51
2020/07/18 02:01:25;;;;;;;1.92;1.69;;;;;;;21.19;64.35;100751.30;;;;-51
2020/07/18 02:04:25;;;;;;;2.02;1.85;;;;;;;21.19;64.36;100749.02;;;;-51
2020/07/18 02:07:25;;;;;;;1.77;1.67;;;;;;;21.18;64.37;100748.33;;;;-50
2020/07/18 02:10:25;;;;;;;1.81;1.65;;;;;;;21.18;64.44;100747.35;;;;-51
2020/07/18 02:13:25;;;;;;;1.72;1.62;;;;;;;21.18;64.45;100752.01;;;;-51
2020/07/18 02:16:26;;;;;;;1.91;1.80;;;;;;;21.18;64.35;100753.72;;;;-51
2020/07/18 02:19:25;;;;;;;1.89;1.79;;;;;;;21.18;64.37;100753.96;;;;-52
2020/07/18 02:22:25;;;;;;;1.78;1.68;;;;;;;21.18;64.38;100756.73;;;;-52
2020/07/18 02:25:25;;;;;;;1.90;1.80;;;;;;;21.17;64.32;100759.75;;;;-50
2020/07/18 02:28:25;;;;;;;1.90;1.80;;;;;;;21.17;64.37;100756.34;;;;-51
2020/07/18 02:31:25;;;;;;;1.90;1.80;;;;;;;21.17;64.32;100757.23;;;;-52
2020/07/18 02:34:26;;;;;;;1.73;1.63;;;;;;;21.17;64.32;100757.39;;;;-51
2020/07/18 02:37:25;;;;;;;1.81;1.71;;;;;;;21.17;64.40;100756.83;;;;-52
2020/07/18 02:40:25;;;;;;;1.81;1.71;;;;;;;21.16;64.34;100760.16;;;;-50
2020/07/18 02:43:25;;;;;;;1.90;1.80;;;;;;;21.16;64.34;100756.97;;;;-52
2020/07/18 02:46:25;;;;;;;1.81;1.71;;;;;;;21.17;64.33;100756.42;;;;-52
2020/07/18 02:49:25;;;;;;;1.89;1.79;;;;;;;21.16;64.35;100756.81;;;;-51
2020/07/18 02:52:26;;;;;;;2.49;1.80;;;;;;;21.16;64.31;100757.46;;;;-51
2020/07/18 02:55:25;;;;;;;1.90;1.80;;;;;;;21.15;64.30;100756.08;;;;-52
2020/07/18 02:58:25;;;;;;;1.88;1.78;;;;;;;21.15;64.32;100755.27;;;;-51
2020/07/18 03:01:25;;;;;;;1.91;1.81;;;;;;;21.14;64.29;100754.84;;;;-51
2020/07/18 03:04:25;;;;;;;1.89;1.79;;;;;;;21.14;64.33;100757.53;;;;-51
2020/07/18 03:07:25;;;;;;;1.85;1.75;;;;;;;21.14;64.36;100759.33;;;;-51
2020/07/18 03:10:25;;;;;;;1.91;1.81;;;;;;;21.13;64.32;100759.73;;;;-51
2020/07/18 03:13:25;;;;;;;1.90;1.80;;;;;;;21.13;64.32;100762.18;;;;-52
2020/07/18 03:16:25;;;;;;;1.83;1.73;;;;;;;21.13;64.28;100759.58;;;;-51
2020/07/18 03:19:25;;;;;;;2.09;1.90;;;;;;;21.13;64.27;100757.30;;;;-51
2020/07/18 03:22:25;;;;;;;1.84;1.74;;;;;;;21.13;64.34;100757.87;;;;-52
2020/07/18 03:25:25;;;;;;;1.90;1.80;;;;;;;21.12;64.30;100755.81;;;;-52
2020/07/18 03:28:25;;;;;;;1.75;1.65;;;;;;;21.12;64.37;100753.45;;;;-50
2020/07/18 03:31:25;;;;;;;1.81;1.71;;;;;;;21.12;64.31;100753.20;;;;-51
2020/07/18 03:34:25;;;;;;;1.94;1.84;;;;;;;21.12;64.30;100753.12;;;;-51
2020/07/18 03:37:25;;;;;;;1.81;1.71;;;;;;;21.12;64.28;100757.52;;;;-51
2020/07/18 03:40:25;;;;;;;1.88;1.78;;;;;;;21.11;64.29;100758.42;;;;-50
2020/07/18 03:43:25;;;;;;;1.87;1.77;;;;;;;21.11;64.33;100759.08;;;;-52
2020/07/18 03:46:25;;;;;;;4.12;2.41;;;;;;;21.08;64.35;100761.33;;;;-51
2020/07/18 03:49:25;;;;;;;5.27;2.81;;;;;;;21.01;64.32;100764.09;;;;-51
2020/07/18 03:52:25;;;;;;;3.69;2.73;;;;;;;20.98;64.26;100766.74;;;;-53
2020/07/18 03:55:25;;;;;;;3.29;3.08;;;;;;;20.94;64.38;100765.28;;;;-53
2020/07/18 03:58:25;;;;;;;3.23;2.93;;;;;;;20.91;64.32;100762.07;;;;-53
2020/07/18 04:01:25;;;;;;;3.39;3.09;;;;;;;20.89;64.31;100760.11;;;;-52
2020/07/18 04:04:25;;;;;;;3.47;3.17;;;;;;;20.87;64.08;100757.00;;;;-53
2020/07/18 04:07:25;;;;;;;3.56;2.99;;;;;;;20.88;64.14;100755.55;;;;-53
2020/07/18 04:10:25;;;;;;;3.91;3.21;;;;;;;20.90;64.12;100751.66;;;;-53
2020/07/18 04:13:25;;;;;;;3.75;2.99;;;;;;;20.93;64.09;100754.34;;;;-53
2020/07/18 04:16:25;;;;;;;3.60;2.93;;;;;;;20.94;64.06;100755.25;;;;-53
2020/07/18 04:19:25;;;;;;;3.33;2.77;;;;;;;20.96;64.07;100755.67;;;;-53
2020/07/18 04:22:25;;;;;;;2.92;2.68;;;;;;;20.97;64.12;100753.88;;;;-53
2020/07/18 04:25:25;;;;;;;5.97;2.99;;;;;;;20.97;64.13;100758.92;;;;-53
2020/07/18 04:28:25;;;;;;;3.01;2.80;;;;;;;20.98;64.16;100758.54;;;;-53
2020/07/18 04:31:25;;;;;;;3.08;2.72;;;;;;;20.98;64.13;100759.52;;;;-53
2020/07/18 04:34:25;;;;;;;3.57;2.88;;;;;;;20.98;64.13;100762.45;;;;-53
2020/07/18 04:37:25;;;;;;;2.90;2.69;;;;;;;20.98;64.14;100764.81;;;;-53
2020/07/18 04:40:25;;;;;;;2.88;2.68;;;;;;;20.98;64.13;100763.09;;;;-53
2020/07/18 04:43:25;;;;;;;2.77;2.57;;;;;;;20.99;64.14;100767.25;;;;-53
2020/07/18 04:46:25;;;;;;;3.41;2.86;;;;;;;20.99;64.13;100768.22;;;;-53
2020/07/18 04:49:26;;;;;;;3.13;2.84;;;;;;;20.99;64.16;100768.47;;;;-53
2020/07/18 04:52:25;;;;;;;3.32;2.64;;;;;;;20.99;64.15;100767.16;;;;-53
2020/07/18 04:55:25;;;;;;;3.01;2.81;;;;;;;20.99;64.15;100768.14;;;;-53
2020/07/18 04:58:25;;;;;;;2.80;2.59;;;;;;;20.99;64.14;100772.37;;;;-53
2020/07/18 05:01:26;;;;;;;3.22;2.99;;;;;;;20.99;64.12;100772.30;;;;-53
2020/07/18 05:04:25;;;;;;;3.09;2.83;;;;;;;20.99;64.14;100767.50;;;;-53
2020/07/18 05:07:25;;;;;;;2.88;2.68;;;;;;;20.99;64.14;100768.22;;;;-53
2020/07/18 05:10:25;;;;;;;3.16;2.65;;;;;;;20.99;64.19;100770.84;;;;-53
2020/07/18 05:13:25;;;;;;;2.85;2.65;;;;;;;20.99;64.21;100768.31;;;;-53
2020/07/18 05:16:25;;;;;;;2.89;2.69;;;;;;;20.99;64.17;100769.28;;;;-53
2020/07/18 05:19:25;;;;;;;2.94;2.60;;;;;;;20.98;64.16;100771.41;;;;-53
2020/07/18 05:22:25;;;;;;;2.89;2.67;;;;;;;20.98;64.16;100773.20;;;;-53
2020/07/18 05:25:25;;;;;;;2.95;2.68;;;;;;;20.98;64.24;100767.91;;;;-53
2020/07/18 05:28:25;;;;;;;2.70;2.50;;;;;;;20.98;64.17;100767.75;;;;-53
2020/07/18 05:31:25;;;;;;;2.73;2.53;;;;;;;20.98;64.18;100771.90;;;;-53
2020/07/18 05:34:25;;;;;;;2.81;2.61;;;;;;;20.99;64.21;100770.19;;;;-53
2020/07/18 05:37:25;;;;;;;2.96;2.61;;;;;;;20.98;64.20;100768.40;;;;-53
2020/07/18 05:40:25;;;;;;;2.60;2.40;;;;;;;20.98;64.18;100765.95;;;;-53
2020/07/18 05:43:25;;;;;;;2.79;2.59;;;;;;;20.98;64.17;100768.07;;;;-53
2020/07/18 05:46:25;;;;;;;2.88;2.68;;;;;;;20.99;64.08;100765.78;;;;-53
2020/07/18 05:49:25;;;;;;;2.56;2.36;;;;;;;20.98;64.19;100760.72;;;;-53
2020/07/18 05:52:25;;;;;;;2.77;2.57;;;;;;;20.97;64.11;100762.10;;;;-53
2020/07/18 05:55:25;;;;;;;2.80;2.60;;;;;;;20.98;64.14;100764.30;;;;-53
2020/07/18 05:58:25;;;;;;;2.68;2.48;;;;;;;20.97;64.18;100762.43;;;;-53
2020/07/18 06:01:25;;;;;;;2.76;2.56;;;;;;;20.98;64.19;100768.53;;;;-53
2020/07/18 06:04:25;;;;;;;2.75;2.55;;;;;;;20.98;64.18;100767.83;;;;-53
2020/07/18 06:07:25;;;;;;;2.60;2.40;;;;;;;20.97;64.17;100769.03;;;;-53
2020/07/18 06:10:25;;;;;;;2.51;2.31;;;;;;;20.98;64.16;100766.91;;;;-53
2020/07/18 06:13:25;;;;;;;2.61;2.41;;;;;;;20.98;64.19;100770.03;;;;-53
2020/07/18 06:16:25;;;;;;;2.78;2.58;;;;;;;20.98;64.17;100770.27;;;;-53
2020/07/18 06:19:25;;;;;;;2.57;2.37;;;;;;;20.98;64.17;100770.33;;;;-53
2020/07/18 06:22:25;;;;;;;2.73;2.53;;;;;;;20.97;64.13;100774.81;;;;-53
2020/07/18 06:25:25;;;;;;;2.50;2.30;;;;;;;20.98;64.13;100777.84;;;;-53
2020/07/18 06:28:25;;;;;;;2.53;2.33;;;;;;;20.98;64.14;100779.31;;;;-53
2020/07/18 06:31:25;;;;;;;2.70;2.50;;;;;;;20.98;64.11;100779.39;;;;-53
2020/07/18 06:34:25;;;;;;;2.61;2.41;;;;;;;20.98;64.12;100780.27;;;;-53
2020/07/18 06:37:25;;;;;;;2.80;2.46;;;;;;;20.97;64.13;100780.11;;;;-53
2020/07/18 06:40:25;;;;;;;2.57;2.39;;;;;;;20.97;64.16;100780.84;;;;-53
2020/07/18 06:43:25;;;;;;;2.49;2.29;;;;;;;20.98;64.16;100781.08;;;;-53
2020/07/18 06:46:25;;;;;;;2.60;2.40;;;;;;;20.98;64.11;100783.31;;;;-53
2020/07/18 06:49:25;;;;;;;2.51;2.31;;;;;;;20.97;64.14;100783.28;;;;-53
2020/07/18 06:52:25;;;;;;;2.70;2.50;;;;;;;20.97;64.18;100780.02;;;;-53
2020/07/18 06:55:25;;;;;;;2.56;2.36;;;;;;;20.98;64.19;100777.83;;;;-53
2020/07/18 06:58:25;;;;;;;2.60;2.40;;;;;;;20.97;64.10;100778.72;;;;-53
2020/07/18 07:01:25;;;;;;;2.52;2.32;;;;;;;20.98;64.10;100779.78;;;;-53
2020/07/18 07:04:25;;;;;;;2.58;2.38;;;;;;;20.97;64.10;100780.92;;;;-53
2020/07/18 07:07:25;;;;;;;2.27;2.17;;;;;;;20.98;64.11;100782.01;;;;-53
2020/07/18 07:10:25;;;;;;;2.27;2.17;;;;;;;20.97;64.14;100779.95;;;;-53
2020/07/18 07:13:25;;;;;;;2.49;2.29;;;;;;;20.97;64.12;100775.95;;;;-53
2020/07/18 07:16:25;;;;;;;2.33;2.17;;;;;;;20.97;64.12;100775.06;;;;-53
2020/07/18 07:19:25;;;;;;;2.61;2.41;;;;;;;20.97;64.07;100773.27;;;;-58
2020/07/18 07:22:25;;;;;;;2.49;2.29;;;;;;;20.97;64.06;100770.83;;;;-58
2020/07/18 07:25:25;;;;;;;2.64;2.44;;;;;;;20.97;64.05;100769.84;;;;-55
2020/07/18 07:28:25;;;;;;;2.51;2.31;;;;;;;20.97;64.06;100771.63;;;;-53
2020/07/18 07:31:25;;;;;;;2.57;2.37;;;;;;;20.97;64.09;100766.50;;;;-58
2020/07/18 07:34:25;;;;;;;2.53;2.33;;;;;;;20.98;64.05;100768.70;;;;-59
2020/07/18 07:37:25;;;;;;;2.35;2.19;;;;;;;20.98;64.00;100769.19;;;;-59
2020/07/18 07:40:25;;;;;;;2.59;2.39;;;;;;;20.97;64.00;100770.33;;;;-59
2020/07/18 07:43:25;;;;;;;2.47;2.27;;;;;;;20.98;64.00;100769.63;;;;-58
2020/07/18 07:46:25;;;;;;;2.39;2.21;;;;;;;20.97;64.05;100768.45;;;;-59
2020/07/18 07:49:25;;;;;;;2.33;2.23;;;;;;;20.96;63.96;100768.63;;;;-59
2020/07/18 07:52:25;;;;;;;2.51;2.31;;;;;;;20.98;64.03;100769.86;;;;-56
2020/07/18 07:55:25;;;;;;;2.44;2.25;;;;;;;20.97;63.99;100769.77;;;;-55
2020/07/18 07:58:25;;;;;;;2.23;2.13;;;;;;;20.98;63.99;100771.30;;;;-56
2020/07/18 08:01:25;;;;;;;2.45;2.26;;;;;;;20.97;63.99;100769.77;;;;-56
2020/07/18 08:04:25;;;;;;;2.37;2.24;;;;;;;20.98;64.00;100771.30;;;;-56
2020/07/18 08:07:25;;;;;;;2.43;2.23;;;;;;;20.98;63.98;100772.39;;;;-56
2020/07/18 08:10:25;;;;;;;2.35;2.21;;;;;;;20.98;63.96;100767.88;;;;-56
2020/07/18 08:13:25;;;;;;;2.48;2.30;;;;;;;20.97;63.97;100770.01;;;;-55
2020/07/18 08:16:25;;;;;;;3.55;2.45;;;;;;;20.99;64.10;100768.55;;;;-52
2020/07/18 08:19:25;;;;;;;2.75;2.39;;;;;;;21.01;64.14;100766.28;;;;-59
2020/07/18 08:22:25;;;;;;;2.93;2.20;;;;;;;21.04;64.12;100767.67;;;;-55
2020/07/18 08:25:25;;;;;;;2.67;2.47;;;;;;;21.05;64.20;100767.20;;;;-52
2020/07/18 08:28:25;;;;;;;2.37;2.17;;;;;;;21.07;64.21;100767.94;;;;-49
2020/07/18 08:31:25;;;;;;;2.43;2.23;;;;;;;21.09;64.26;100772.92;;;;-51
2020/07/18 08:34:25;;;;;;;4.53;2.33;;;;;;;21.09;64.31;100770.06;;;;-51
2020/07/18 08:37:25;;;;;;;3.99;2.10;;;;;;;21.12;64.35;100766.73;;;;-58
2020/07/18 08:40:25;;;;;;;4.03;2.31;;;;;;;21.13;64.35;100761.45;;;;-58
2020/07/18 08:43:25;;;;;;;4.23;2.44;;;;;;;21.14;64.26;100761.36;;;;-54
2020/07/18 08:46:25;;;;;;;2.83;2.19;;;;;;;21.13;64.38;100759.73;;;;-55
2020/07/18 08:49:25;;;;;;;2.59;2.35;;;;;;;21.14;64.40;100758.02;;;;-51
2020/07/18 08:52:25;;;;;;;2.43;2.23;;;;;;;21.15;64.34;100752.02;;;;-51
2020/07/18 08:55:25;;;;;;;2.31;2.11;;;;;;;21.14;64.33;100751.99;;;;-51
2020/07/18 08:58:25;;;;;;;2.67;2.20;;;;;;;21.14;64.32;100752.72;;;;-51
2020/07/18 09:01:25;;;;;;;2.71;2.33;;;;;;;21.14;64.28;100753.05;;;;-51
2020/07/18 09:04:25;;;;;;;2.39;2.19;;;;;;;21.14;64.24;100754.60;;;;-51
2020/07/18 09:07:25;;;;;;;2.35;2.15;;;;;;;21.14;64.15;100753.86;;;;-50
2020/07/18 09:10:25;;;;;;;2.40;2.20;;;;;;;21.14;64.15;100751.34;;;;-49
2020/07/18 09:13:25;;;;;;;3.20;2.01;;;;;;;21.15;64.21;100747.61;;;;-47
2020/07/18 09:16:25;;;;;;;3.41;2.25;;;;;;;21.17;64.19;100749.58;;;;-50
2020/07/18 09:19:25;;;;;;;6.34;2.36;;;;;;;21.18;64.22;100751.75;;;;-49
2020/07/18 09:22:25;;;;;;;2.65;2.05;;;;;;;21.20;64.20;100749.41;;;;-57
2020/07/18 09:25:25;;;;;;;2.41;2.13;;;;;;;21.20;64.26;100741.91;;;;-52
2020/07/18 09:28:25;;;;;;;3.59;2.15;;;;;;;21.22;64.25;100740.70;;;;-52
2020/07/18 09:31:25;;;;;;;2.51;2.19;;;;;;;21.23;64.42;100741.34;;;;-51
2020/07/18 09:34:25;;;;;;;2.27;2.07;;;;;;;21.22;64.35;100735.06;;;;-55
2020/07/18 09:37:25;;;;;;;2.99;2.11;;;;;;;21.24;64.42;100739.39;;;;-50
2020/07/18 09:40:26;;;;;;;2.71;2.22;;;;;;;21.25;64.32;100738.49;;;;-51
2020/07/18 09:43:25;;;;;;;5.19;2.44;;;;;;;21.26;64.47;100735.33;;;;-44
2020/07/18 09:46:25;;;;;;;4.60;2.31;;;;;;;21.28;64.48;100735.66;;;;-46
2020/07/18 09:49:25;;;;;;;3.92;2.09;;;;;;;21.30;64.50;100729.56;;;;-51
2020/07/18 09:52:25;;;;;;;6.19;2.21;;;;;;;21.31;64.65;100728.52;;;;-53
2020/07/18 09:55:25;;;;;;;5.20;2.23;;;;;;;21.33;64.58;100724.66;;;;-45
2020/07/18 09:58:25;;;;;;;5.51;2.43;;;;;;;21.32;64.59;100722.80;;;;-44
2020/07/18 10:01:25;;;;;;;5.77;2.39;;;;;;;21.34;64.65;100723.13;;;;-60
2020/07/18 10:04:25;;;;;;;2.58;2.19;;;;;;;21.34;64.51;100714.73;;;;-57
2020/07/18 10:07:25;;;;;;;4.03;2.50;;;;;;;21.36;64.54;100715.64;;;;-50
2020/07/18 10:10:25;;;;;;;5.10;2.35;;;;;;;21.36;64.49;100707.48;;;;-52
2020/07/18 10:13:25;;;;;;;3.37;2.13;;;;;;;21.36;64.51;100706.11;;;;-52
2020/07/18 10:16:25;;;;;;;3.62;2.37;;;;;;;21.36;64.38;100703.81;;;;-53
2020/07/18 10:19:25;;;;;;;4.11;2.23;;;;;;;21.35;64.41;100703.96;;;;-52
2020/07/18 10:22:25;;;;;;;3.32;2.20;;;;;;;21.34;64.39;100705.44;;;;-51
2020/07/18 10:25:25;;;;;;;2.47;2.19;;;;;;;21.34;64.34;100700.95;;;;-48
2020/07/18 10:28:25;;;;;;;3.36;2.27;;;;;;;21.35;64.21;100698.83;;;;-48
2020/07/18 10:31:25;;;;;;;2.77;2.22;;;;;;;21.35;64.17;100699.40;;;;-48
2020/07/18 10:34:25;;;;;;;2.99;2.23;;;;;;;21.35;64.14;100697.84;;;;-48
2020/07/18 10:37:25;;;;;;;3.52;2.05;;;;;;;21.34;64.06;100693.94;;;;-48
2020/07/18 10:40:25;;;;;;;5.95;2.15;;;;;;;21.34;64.02;100690.60;;;;-47
2020/07/18 10:43:25;;;;;;;3.15;2.29;;;;;;;21.35;64.02;100698.91;;;;-48
2020/07/18 10:46:25;;;;;;;4.38;1.93;;;;;;;21.34;64.02;100697.45;;;;-48
2020/07/18 10:49:25;;;;;;;2.67;2.11;;;;;;;21.34;64.00;100691.83;;;;-48
2020/07/18 10:52:25;;;;;;;2.92;2.01;;;;;;;21.33;63.93;100688.08;;;;-48
2020/07/18 10:55:25;;;;;;;2.72;2.17;;;;;;;21.33;63.95;100684.82;;;;-48
2020/07/18 10:58:25;;;;;;;2.69;2.00;;;;;;;21.33;63.92;100681.08;;;;-48
2020/07/18 11:01:25;;;;;;;3.35;2.08;;;;;;;21.32;63.92;100680.48;;;;-48
2020/07/18 11:04:25;;;;;;;2.70;2.00;;;;;;;21.33;63.92;100677.65;;;;-48
2020/07/18 11:07:25;;;;;;;2.59;1.99;;;;;;;21.33;63.91;100680.56;;;;-48
2020/07/18 11:10:25;;;;;;;4.28;2.15;;;;;;;21.33;63.89;100675.50;;;;-48
2020/07/18 11:13:25;;;;;;;3.75;2.07;;;;;;;21.34;63.88;100667.63;;;;-48
2020/07/18 11:16:25;;;;;;;3.05;2.19;;;;;;;21.33;63.86;100674.20;;;;-48
2020/07/18 11:19:25;;;;;;;2.69;2.06;;;;;;;21.32;63.86;100668.66;;;;-47
2020/07/18 11:22:25;;;;;;;3.48;2.30;;;;;;;21.32;63.84;100665.98;;;;-48
2020/07/18 11:25:25;;;;;;;2.75;1.97;;;;;;;21.32;63.81;100663.45;;;;-48
2020/07/18 11:28:25;;;;;;;3.00;2.03;;;;;;;21.33;63.74;100665.31;;;;-49
2020/07/18 11:31:25;;;;;;;2.44;2.03;;;;;;;21.34;63.78;100663.54;;;;-48
2020/07/18 11:34:25;;;;;;;2.38;2.18;;;;;;;21.34;63.71;100662.64;;;;-47
2020/07/18 11:37:25;;;;;;;2.33;1.96;;;;;;;21.32;63.79;100656.27;;;;-49
2020/07/18 11:40:25;;;;;;;2.49;2.01;;;;;;;21.32;63.77;100653.83;;;;-48
2020/07/18 11:43:25;;;;;;;3.49;2.22;;;;;;;21.33;63.72;100650.81;;;;-48
2020/07/18 11:46:25;;;;;;;2.65;2.13;;;;;;;21.33;63.89;100650.91;;;;-51
2020/07/18 11:49:25;;;;;;;2.65;2.23;;;;;;;21.34;63.85;100648.38;;;;-62
2020/07/18 11:52:25;;;;;;;2.15;1.98;;;;;;;21.36;63.92;100648.70;;;;-59
2020/07/18 11:57:25;;;;;;;2.91;2.25;;;;;;;21.37;64.11;100643.25;;;;-61
2020/07/18 12:00:25;;;;;;;2.41;1.99;;;;;;;21.37;64.18;100640.81;;;;-61
2020/07/18 12:03:25;;;;;;;5.73;2.31;;;;;;;21.39;64.26;100642.17;;;;-54
2020/07/18 12:06:25;;;;;;;3.17;2.19;;;;;;;21.40;64.27;100635.02;;;;-60
2020/07/18 12:09:25;;;;;;;3.93;2.19;;;;;;;21.40;64.48;100633.30;;;;-60
2020/07/18 12:12:25;;;;;;;4.39;2.20;;;;;;;21.41;64.45;100631.66;;;;-52
2020/07/18 12:15:25;;;;;;;2.64;2.04;;;;;;;21.42;64.42;100629.50;;;;-53
2020/07/18 12:18:25;;;;;;;3.72;2.19;;;;;;;21.43;64.50;100631.28;;;;-54
2020/07/18 12:21:25;;;;;;;4.13;2.11;;;;;;;21.44;64.43;100626.82;;;;-54
2020/07/18 12:24:25;;;;;;;5.93;2.34;;;;;;;21.44;64.58;100628.03;;;;-58
2020/07/18 12:27:25;;;;;;;6.79;2.20;;;;;;;21.44;64.58;100625.02;;;;-55
2020/07/18 12:30:25;;;;;;;2.99;2.09;;;;;;;21.46;64.49;100623.53;;;;-59
2020/07/18 12:33:25;;;;;;;3.63;2.13;;;;;;;21.48;64.56;100620.11;;;;-58
2020/07/18 12:36:25;;;;;;;6.13;2.15;;;;;;;21.48;64.53;100615.89;;;;-52
2020/07/18 12:39:25;;;;;;;6.06;2.19;;;;;;;21.49;64.54;100613.43;;;;-52
2020/07/18 12:42:25;;;;;;;8.78;2.35;;;;;;;21.51;64.53;100613.11;;;;-54
2020/07/18 12:45:26;;;;;;;4.55;2.24;;;;;;;21.51;64.50;100618.48;;;;-54
2020/07/18 12:48:25;;;;;;;4.17;2.16;;;;;;;21.51;64.35;100611.65;;;;-59
2020/07/18 12:51:25;;;;;;;5.81;2.34;;;;;;;21.52;64.50;100615.47;;;;-55
2020/07/18 12:54:25;;;;;;;3.77;1.96;;;;;;;21.52;64.46;100607.39;;;;-53
2020/07/18 12:57:25;;;;;;;4.61;2.33;;;;;;;21.53;64.38;100597.63;;;;-57
2020/07/18 13:00:25;;;;;;;2.87;1.94;;;;;;;21.54;64.50;100603.50;;;;-51
2020/07/18 13:03:25;;;;;;;6.29;2.56;;;;;;;21.53;64.45;100598.43;;;;-59
2020/07/18 13:06:25;;;;;;;4.37;2.20;;;;;;;21.54;64.46;100595.48;;;;-47
2020/07/18 13:09:25;;;;;;;3.14;2.10;;;;;;;21.54;64.49;100590.76;;;;-50
2020/07/18 13:12:26;;;;;;;7.05;2.33;;;;;;;21.55;64.55;100591.02;;;;-61
2020/07/18 13:15:28;;;;;;;3.83;2.16;;;;;;;21.56;64.58;100597.12;;;;-47
2020/07/18 13:18:25;;;;;;;3.25;2.31;;;;;;;21.56;64.47;100598.61;;;;-51
2020/07/18 13:21:26;;;;;;;5.93;2.26;;;;;;;21.57;64.48;100592.72;;;;-52
2020/07/18 13:24:26;;;;;;;5.43;2.26;;;;;;;21.57;64.44;100585.31;;;;-53
2020/07/18 13:27:25;;;;;;;9.20;2.59;;;;;;;21.57;64.48;100587.27;;;;-53
2020/07/18 13:30:26;;;;;;;5.99;2.11;;;;;;;21.57;64.34;100583.11;;;;-52
2020/07/18 13:33:25;;;;;;;4.53;2.15;;;;;;;21.57;64.37;100578.63;;;;-52
2020/07/18 13:36:25;;;;;;;4.45;2.07;;;;;;;21.56;64.26;100573.14;;;;-62
2020/07/18 13:39:25;;;;;;;3.86;2.07;;;;;;;21.57;64.18;100574.06;;;;-60
2020/07/18 13:42:25;;;;;;;3.36;2.12;;;;;;;21.56;64.13;100571.19;;;;-60
2020/07/18 13:45:25;;;;;;;2.69;2.10;;;;;;;21.56;64.08;100572.25;;;;-60
2020/07/18 13:48:25;;;;;;;3.61;2.17;;;;;;;21.56;64.04;100570.29;;;;-62
2020/07/18 13:51:25;;;;;;;4.58;1.98;;;;;;;21.56;64.07;100569.64;;;;-60
2020/07/18 13:54:25;;;;;;;2.95;1.97;;;;;;;21.55;63.99;100571.20;;;;-52
2020/07/18 13:57:25;;;;;;;2.80;2.00;;;;;;;21.55;63.96;100570.38;;;;-52
2020/07/18 14:00:25;;;;;;;3.01;1.89;;;;;;;21.55;63.89;100570.63;;;;-52
2020/07/18 14:03:25;;;;;;;3.95;2.07;;;;;;;21.54;63.94;100563.44;;;;-52
2020/07/18 14:06:25;;;;;;;3.29;2.11;;;;;;;21.53;63.98;100567.28;;;;-52
2020/07/18 14:09:25;;;;;;;4.53;2.21;;;;;;;21.53;63.93;100566.88;;;;-54
2020/07/18 14:12:25;;;;;;;4.12;2.03;;;;;;;21.53;63.96;100568.35;;;;-57
2020/07/18 14:15:25;;;;;;;5.81;2.33;;;;;;;21.52;63.92;100568.01;;;;-58
2020/07/18 14:18:25;;;;;;;5.34;2.08;;;;;;;21.51;63.95;100563.94;;;;-61
2020/07/18 14:21:25;;;;;;;4.15;2.03;;;;;;;21.52;63.93;100562.87;;;;-61
2020/07/18 14:24:25;;;;;;;7.93;2.14;;;;;;;21.53;63.87;100562.31;;;;-58
2020/07/18 14:27:25;;;;;;;4.71;2.03;;;;;;;21.51;63.95;100555.37;;;;-57
2020/07/18 14:30:25;;;;;;;5.00;2.01;;;;;;;21.51;63.98;100555.45;;;;-58
2020/07/18 14:33:25;;;;;;;3.93;1.97;;;;;;;21.51;63.90;100556.35;;;;-57
2020/07/18 14:36:26;;;;;;;6.73;2.35;;;;;;;21.51;64.05;100550.81;;;;-58
2020/07/18 14:39:25;;;;;;;5.51;2.27;;;;;;;21.51;63.95;100549.76;;;;-64
2020/07/18 14:42:25;;;;;;;5.91;2.19;;;;;;;21.53;64.08;100544.78;;;;-59
2020/07/18 14:45:26;;;;;;;5.03;2.31;;;;;;;21.53;64.34;100547.05;;;;-54
2020/07/18 14:48:25;;;;;;;4.88;2.40;;;;;;;21.55;64.41;100544.12;;;;-59
2020/07/18 14:51:26;;;;;;;4.39;2.48;;;;;;;21.55;64.50;100541.59;;;;-57
2020/07/18 14:54:25;;;;;;;6.48;2.62;;;;;;;21.55;64.39;100538.17;;;;-57
2020/07/18 14:57:26;;;;;;;5.59;2.71;;;;;;;21.56;64.63;100538.51;;;;-55
2020/07/18 15:00:25;;;;;;;7.41;2.81;;;;;;;21.56;64.69;100538.67;;;;-57
2020/07/18 15:03:28;;;;;;;11.30;4.31;;;;;;;21.58;64.76;100535.39;;;;-60
2020/07/18 15:06:25;;;;;;;9.03;3.79;;;;;;;21.58;64.79;100532.80;;;;-53
2020/07/18 15:09:25;;;;;;;8.87;4.15;;;;;;;21.58;64.79;100531.33;;;;-51
2020/07/18 15:12:25;;;;;;;10.63;4.94;;;;;;;21.59;64.71;100532.37;;;;-50
2020/07/18 15:15:25;;;;;;;14.27;4.34;;;;;;;21.60;64.72;100530.02;;;;-56
2020/07/18 15:18:28;;;;;;;10.23;4.97;;;;;;;21.60;64.51;100528.05;;;;-57
2020/07/18 15:21:25;;;;;;;12.97;4.98;;;;;;;21.62;64.74;100528.62;;;;-56
2020/07/18 15:24:25;;;;;;;10.45;4.64;;;;;;;21.62;64.51;100522.50;;;;-56
2020/07/18 15:27:27;;;;;;;10.09;4.67;;;;;;;21.61;64.69;100519.66;;;;-54
2020/07/18 15:30:25;;;;;;;11.59;5.11;;;;;;;21.63;64.66;100519.83;;;;-51
2020/07/18 15:33:25;;;;;;;16.63;5.27;;;;;;;21.63;64.69;100519.00;;;;-57
2020/07/18 15:36:25;;;;;;;14.39;5.53;;;;;;;21.63;64.70;100519.81;;;;-61
2020/07/18 15:39:25;;;;;;;12.69;5.33;;;;;;;21.64;64.70;100518.49;;;;-60
2020/07/18 15:42:27;;;;;;;16.65;6.14;;;;;;;21.65;64.75;100517.93;;;;-59
2020/07/18 15:45:25;;;;;;;13.19;5.57;;;;;;;21.66;64.74;100515.97;;;;-59
2020/07/18 15:48:25;;;;;;;10.86;5.73;;;;;;;21.66;64.73;100515.63;;;;-56
2020/07/18 15:51:25;;;;;;;13.85;5.55;;;;;;;21.67;64.65;100514.42;;;;-59
2020/07/18 15:54:25;;;;;;;12.52;5.55;;;;;;;21.67;64.73;100512.05;;;;-53
2020/07/18 15:57:25;;;;;;;13.61;5.60;;;;;;;21.68;64.66;100514.09;;;;-50
2020/07/18 16:00:25;;;;;;;10.11;5.51;;;;;;;21.68;64.51;100510.89;;;;-56
2020/07/18 16:03:25;;;;;;;14.83;5.90;;;;;;;21.68;64.58;100507.39;;;;-56
2020/07/18 16:06:25;;;;;;;12.19;5.71;;;;;;;21.68;64.46;100507.47;;;;-57
2020/07/18 16:09:25;;;;;;;13.84;5.54;;;;;;;21.67;64.63;100503.82;;;;-54
2020/07/18 16:12:25;;;;;;;12.83;6.03;;;;;;;21.67;64.59;100509.37;;;;-52
2020/07/18 16:15:25;;;;;;;13.22;5.45;;;;;;;21.68;64.44;100509.92;;;;-53
2020/07/18 16:18:25;;;;;;;17.13;5.69;;;;;;;21.68;64.57;100509.19;;;;-48
2020/07/18 16:21:25;;;;;;;12.73;5.48;;;;;;;21.69;64.58;100505.70;;;;-55
2020/07/18 16:24:25;;;;;;;14.01;5.87;;;;;;;21.69;64.55;100506.19;;;;-55
2020/07/18 16:27:25;;;;;;;12.81;5.77;;;;;;;21.70;64.54;100506.16;;;;-54
2020/07/18 16:30:25;;;;;;;12.56;5.59;;;;;;;21.71;64.55;100504.72;;;;-51
2020/07/18 16:33:25;;;;;;;14.25;5.66;;;;;;;21.72;64.57;100504.70;;;;-51
2020/07/18 16:36:25;;;;;;;10.53;5.17;;;;;;;21.73;64.56;100506.25;;;;-51
2020/07/18 16:39:25;;;;;;;12.97;5.31;;;;;;;21.72;64.54;100501.34;;;;-53
2020/07/18 16:42:25;;;;;;;16.36;5.85;;;;;;;21.74;64.61;100504.04;;;;-52
2020/07/18 16:45:25;;;;;;;12.25;5.25;;;;;;;21.75;64.54;100504.68;;;;-51
2020/07/18 16:48:25;;;;;;;15.71;5.40;;;;;;;21.75;64.52;100503.31;;;;-51
2020/07/18 16:51:25;;;;;;;11.03;5.54;;;;;;;21.76;64.54;100494.73;;;;-49
2020/07/18 16:54:25;;;;;;;12.39;5.21;;;;;;;21.78;64.59;100495.72;;;;-58